sensor_id;sensor_type;location;lat;lon;timestamp;temperature;humidity
7476;DHT22;3779;49.216;8.650;2022-12-07T00:02:24;18.80;38.80
7476;DHT22;3779;49.216;8.650;2022-12-07T00:05:09;18.70;38.70
7476;DHT22;3779;49.216;8.650;2022-12-07T00:07:55;18.70;38.70
7476;DHT22;3779;49.216;8.650;2022-12-07T00:10:41;18.80;38.70
7476;DHT22;3779;49.216;8.650;2022-12-07T00:13:27;18.80;38.70
7476;DHT22;3779;49.216;8.650;2022-12-07T00:16:19;18.70;38.60
7476;DHT22;3779;49.216;8.650;2022-12-07T00:19:05;18.30;38.40
7476;DHT22;3779;49.216;8.650;2022-12-07T00:21:50;18.70;38.70
7476;DHT22;3779;49.216;8.650;2022-12-07T00:24:36;18.70;38.60
7476;DHT22;3779;49.216;8.650;2022-12-07T00:27:22;18.70;38.50
7476;DHT22;3779;49.216;8.650;2022-12-07T00:30:08;18.70;38.60
7476;DHT22;3779;49.216;8.650;2022-12-07T00:32:54;18.70;38.70
7476;DHT22;3779;49.216;8.650;2022-12-07T00:35:40;18.70;38.50
7476;DHT22;3779;49.216;8.650;2022-12-07T00:38:29;18.70;38.50
7476;DHT22;3779;49.216;8.650;2022-12-07T00:41:26;18.70;38.60
7476;DHT22;3779;49.216;8.650;2022-12-07T00:44:12;18.70;38.70
7476;DHT22;3779;49.216;8.650;2022-12-07T00:46:58;18.70;38.50
7476;DHT22;3779;49.216;8.650;2022-12-07T00:49:44;18.70;38.40
7476;DHT22;3779;49.216;8.650;2022-12-07T00:52:30;18.70;38.40
7476;DHT22;3779;49.216;8.650;2022-12-07T00:55:16;18.70;38.40
7476;DHT22;3779;49.216;8.650;2022-12-07T00:58:03;18.70;38.40
7476;DHT22;3779;49.216;8.650;2022-12-07T01:00:49;18.70;38.40
7476;DHT22;3779;49.216;8.650;2022-12-07T01:03:36;18.70;39.10
7476;DHT22;3779;49.216;8.650;2022-12-07T01:06:23;18.70;38.50
7476;DHT22;3779;49.216;8.650;2022-12-07T01:09:09;18.70;38.50
7476;DHT22;3779;49.216;8.650;2022-12-07T01:11:55;18.70;39.10
7476;DHT22;3779;49.216;8.650;2022-12-07T01:14:41;18.70;39.00
7476;DHT22;3779;49.216;8.650;2022-12-07T01:17:28;18.70;38.30
7476;DHT22;3779;49.216;8.650;2022-12-07T01:20:14;18.70;38.30
7476;DHT22;3779;49.216;8.650;2022-12-07T01:23:01;18.70;38.40
7476;DHT22;3779;49.216;8.650;2022-12-07T01:25:56;18.70;38.50
7476;DHT22;3779;49.216;8.650;2022-12-07T01:28:43;18.70;38.60
7476;DHT22;3779;49.216;8.650;2022-12-07T01:31:29;18.70;38.50
7476;DHT22;3779;49.216;8.650;2022-12-07T01:34:15;18.70;38.50
7476;DHT22;3779;49.216;8.650;2022-12-07T01:37:01;18.70;38.50
7476;DHT22;3779;49.216;8.650;2022-12-07T01:39:50;18.70;38.50
7476;DHT22;3779;49.216;8.650;2022-12-07T01:42:36;18.70;38.70
7476;DHT22;3779;49.216;8.650;2022-12-07T01:48:13;18.70;38.80
7476;DHT22;3779;49.216;8.650;2022-12-07T01:51:04;18.70;38.70
7476;DHT22;3779;49.216;8.650;2022-12-07T01:53:51;18.70;38.80
7476;DHT22;3779;49.216;8.650;2022-12-07T01:56:38;18.70;38.70
7476;DHT22;3779;49.216;8.650;2022-12-07T01:59:25;18.70;38.60
7476;DHT22;3779;49.216;8.650;2022-12-07T02:02:35;18.70;39.20
7476;DHT22;3779;49.216;8.650;2022-12-07T02:05:23;18.70;38.60
7476;DHT22;3779;49.216;8.650;2022-12-07T02:08:10;18.70;38.70
7476;DHT22;3779;49.216;8.650;2022-12-07T02:10:57;18.70;38.60
7476;DHT22;3779;49.216;8.650;2022-12-07T02:13:45;18.70;38.50
7476;DHT22;3779;49.216;8.650;2022-12-07T02:26:20;18.70;38.50
7476;DHT22;3779;49.216;8.650;2022-12-07T02:29:39;18.70;38.60
7476;DHT22;3779;49.216;8.650;2022-12-07T02:33:06;18.70;38.70
7476;DHT22;3779;49.216;8.650;2022-12-07T02:36:10;18.70;38.70
7476;DHT22;3779;49.216;8.650;2022-12-07T02:41:58;18.70;38.50
7476;DHT22;3779;49.216;8.650;2022-12-07T02:44:46;18.70;38.60
7476;DHT22;3779;49.216;8.650;2022-12-07T02:47:34;18.70;38.50
7476;DHT22;3779;49.216;8.650;2022-12-07T02:50:21;18.70;38.50
7476;DHT22;3779;49.216;8.650;2022-12-07T03:03:00;18.70;38.50
7476;DHT22;3779;49.216;8.650;2022-12-07T03:09:20;18.70;38.40
7476;DHT22;3779;49.216;8.650;2022-12-07T03:12:21;18.60;38.20
7476;DHT22;3779;49.216;8.650;2022-12-07T03:18:07;18.70;38.10
7476;DHT22;3779;49.216;8.650;2022-12-07T03:21:01;18.70;38.70
7476;DHT22;3779;49.216;8.650;2022-12-07T03:23:51;18.70;38.00
7476;DHT22;3779;49.216;8.650;2022-12-07T03:26:55;18.70;38.00
7476;DHT22;3779;49.216;8.650;2022-12-07T03:33:05;18.60;38.10
7476;DHT22;3779;49.216;8.650;2022-12-07T03:42:05;18.70;38.40
7476;DHT22;3779;49.216;8.650;2022-12-07T03:44:52;18.70;38.80
7476;DHT22;3779;49.216;8.650;2022-12-07T03:48:06;18.70;38.10
7476;DHT22;3779;49.216;8.650;2022-12-07T03:53:54;18.70;38.20
7476;DHT22;3779;49.216;8.650;2022-12-07T03:56:43;18.70;38.10
7476;DHT22;3779;49.216;8.650;2022-12-07T03:59:30;18.70;38.00
7476;DHT22;3779;49.216;8.650;2022-12-07T04:02:17;18.70;37.90
7476;DHT22;3779;49.216;8.650;2022-12-07T04:05:03;18.70;38.00
7476;DHT22;3779;49.216;8.650;2022-12-07T04:07:49;18.70;38.00
7476;DHT22;3779;49.216;8.650;2022-12-07T04:10:35;18.70;38.00
7476;DHT22;3779;49.216;8.650;2022-12-07T04:13:21;18.70;38.00
7476;DHT22;3779;49.216;8.650;2022-12-07T04:16:07;18.70;38.00
7476;DHT22;3779;49.216;8.650;2022-12-07T04:18:53;18.70;38.00
7476;DHT22;3779;49.216;8.650;2022-12-07T04:21:39;18.60;37.90
7476;DHT22;3779;49.216;8.650;2022-12-07T04:24:25;18.70;38.00
7476;DHT22;3779;49.216;8.650;2022-12-07T04:27:11;18.70;38.10
7476;DHT22;3779;49.216;8.650;2022-12-07T04:29:57;18.70;38.00
7476;DHT22;3779;49.216;8.650;2022-12-07T04:32:43;18.70;38.00
7476;DHT22;3779;49.216;8.650;2022-12-07T04:35:29;18.70;37.90
7476;DHT22;3779;49.216;8.650;2022-12-07T04:38:15;18.70;38.00
7476;DHT22;3779;49.216;8.650;2022-12-07T04:41:08;18.60;38.50
7476;DHT22;3779;49.216;8.650;2022-12-07T04:44:00;18.60;38.00
7476;DHT22;3779;49.216;8.650;2022-12-07T04:46:47;18.70;38.10
7476;DHT22;3779;49.216;8.650;2022-12-07T04:49:33;18.70;38.00
7476;DHT22;3779;49.216;8.650;2022-12-07T04:52:19;18.70;38.00
7476;DHT22;3779;49.216;8.650;2022-12-07T04:55:05;18.70;38.10
7476;DHT22;3779;49.216;8.650;2022-12-07T04:57:51;18.70;38.10
7476;DHT22;3779;49.216;8.650;2022-12-07T05:00:36;18.70;38.00
7476;DHT22;3779;49.216;8.650;2022-12-07T05:03:22;18.70;38.00
7476;DHT22;3779;49.216;8.650;2022-12-07T05:06:10;18.70;38.00
7476;DHT22;3779;49.216;8.650;2022-12-07T05:08:56;18.70;38.00
7476;DHT22;3779;49.216;8.650;2022-12-07T05:11:42;18.70;37.90
7476;DHT22;3779;49.216;8.650;2022-12-07T05:14:28;18.70;37.90
7476;DHT22;3779;49.216;8.650;2022-12-07T05:17:14;18.60;37.80
7476;DHT22;3779;49.216;8.650;2022-12-07T05:20:00;18.70;37.80
7476;DHT22;3779;49.216;8.650;2022-12-07T05:22:46;18.60;37.80
7476;DHT22;3779;49.216;8.650;2022-12-07T05:25:32;18.60;37.80
7476;DHT22;3779;49.216;8.650;2022-12-07T05:28:18;18.70;37.80
7476;DHT22;3779;49.216;8.650;2022-12-07T05:31:04;18.60;37.60
7476;DHT22;3779;49.216;8.650;2022-12-07T05:33:51;18.60;37.70
7476;DHT22;3779;49.216;8.650;2022-12-07T05:36:36;18.60;37.60
7476;DHT22;3779;49.216;8.650;2022-12-07T05:39:22;18.60;37.70
7476;DHT22;3779;49.216;8.650;2022-12-07T05:42:10;18.70;37.80
7476;DHT22;3779;49.216;8.650;2022-12-07T05:44:59;18.60;37.80
7476;DHT22;3779;49.216;8.650;2022-12-07T05:47:45;18.60;37.70
7476;DHT22;3779;49.216;8.650;2022-12-07T05:50:31;18.60;37.70
7476;DHT22;3779;49.216;8.650;2022-12-07T05:53:20;18.60;37.70
7476;DHT22;3779;49.216;8.650;2022-12-07T05:56:06;18.60;37.60
7476;DHT22;3779;49.216;8.650;2022-12-07T05:58:52;18.60;37.60
7476;DHT22;3779;49.216;8.650;2022-12-07T06:02:02;18.60;37.60
7476;DHT22;3779;49.216;8.650;2022-12-07T06:04:48;18.60;37.60
7476;DHT22;3779;49.216;8.650;2022-12-07T06:07:34;18.60;37.40
7476;DHT22;3779;49.216;8.650;2022-12-07T06:10:20;18.60;37.80
7476;DHT22;3779;49.216;8.650;2022-12-07T06:13:06;18.60;37.30
7476;DHT22;3779;49.216;8.650;2022-12-07T06:15:52;18.60;37.40
7476;DHT22;3779;49.216;8.650;2022-12-07T06:18:38;18.60;37.30
7476;DHT22;3779;49.216;8.650;2022-12-07T06:21:23;18.60;37.30
7476;DHT22;3779;49.216;8.650;2022-12-07T06:24:13;18.60;37.20
7476;DHT22;3779;49.216;8.650;2022-12-07T06:26:59;18.60;37.30
7476;DHT22;3779;49.216;8.650;2022-12-07T06:29:45;18.70;37.30
7476;DHT22;3779;49.216;8.650;2022-12-07T06:32:31;18.60;37.00
7476;DHT22;3779;49.216;8.650;2022-12-07T06:35:16;18.60;37.00
7476;DHT22;3779;49.216;8.650;2022-12-07T06:38:02;18.60;36.90
7476;DHT22;3779;49.216;8.650;2022-12-07T06:40:48;18.60;36.90
7476;DHT22;3779;49.216;8.650;2022-12-07T06:43:34;18.60;36.90
7476;DHT22;3779;49.216;8.650;2022-12-07T06:46:20;18.70;37.00
7476;DHT22;3779;49.216;8.650;2022-12-07T06:49:06;18.60;37.00
7476;DHT22;3779;49.216;8.650;2022-12-07T06:51:52;18.70;37.00
7476;DHT22;3779;49.216;8.650;2022-12-07T06:54:38;18.70;37.00
7476;DHT22;3779;49.216;8.650;2022-12-07T06:57:24;18.70;37.00
7476;DHT22;3779;49.216;8.650;2022-12-07T07:00:10;18.70;36.80
7476;DHT22;3779;49.216;8.650;2022-12-07T07:02:56;18.70;36.80
7476;DHT22;3779;49.216;8.650;2022-12-07T07:05:43;18.70;36.90
7476;DHT22;3779;49.216;8.650;2022-12-07T07:08:29;18.60;36.90
7476;DHT22;3779;49.216;8.650;2022-12-07T07:11:16;18.70;36.90
7476;DHT22;3779;49.216;8.650;2022-12-07T07:14:02;18.70;37.00
7476;DHT22;3779;49.216;8.650;2022-12-07T07:16:49;18.70;37.10
7476;DHT22;3779;49.216;8.650;2022-12-07T07:19:35;18.70;37.00
7476;DHT22;3779;49.216;8.650;2022-12-07T07:22:22;18.70;37.00
7476;DHT22;3779;49.216;8.650;2022-12-07T07:25:08;18.70;36.80
7476;DHT22;3779;49.216;8.650;2022-12-07T07:27:54;18.70;36.90
7476;DHT22;3779;49.216;8.650;2022-12-07T07:30:40;18.70;36.90
7476;DHT22;3779;49.216;8.650;2022-12-07T07:33:27;18.70;36.80
7476;DHT22;3779;49.216;8.650;2022-12-07T07:36:12;18.70;37.50
7476;DHT22;3779;49.216;8.650;2022-12-07T07:38:58;18.70;36.90
7476;DHT22;3779;49.216;8.650;2022-12-07T07:41:44;18.70;36.90
7476;DHT22;3779;49.216;8.650;2022-12-07T07:44:34;18.70;37.00
7476;DHT22;3779;49.216;8.650;2022-12-07T07:47:20;18.60;36.90
7476;DHT22;3779;49.216;8.650;2022-12-07T07:50:06;18.70;37.00
7476;DHT22;3779;49.216;8.650;2022-12-07T07:52:52;18.70;36.80
7476;DHT22;3779;49.216;8.650;2022-12-07T07:55:38;18.70;36.90
7476;DHT22;3779;49.216;8.650;2022-12-07T07:58:24;18.70;36.90
7476;DHT22;3779;49.216;8.650;2022-12-07T08:01:10;18.70;37.10
7476;DHT22;3779;49.216;8.650;2022-12-07T08:03:55;18.70;37.00
7476;DHT22;3779;49.216;8.650;2022-12-07T08:06:41;18.70;36.90
7476;DHT22;3779;49.216;8.650;2022-12-07T08:09:27;18.70;36.90
7476;DHT22;3779;49.216;8.650;2022-12-07T08:12:13;18.70;37.00
7476;DHT22;3779;49.216;8.650;2022-12-07T08:14:59;18.70;37.00
7476;DHT22;3779;49.216;8.650;2022-12-07T08:17:45;18.70;37.00
7476;DHT22;3779;49.216;8.650;2022-12-07T08:20:32;18.70;37.00
7476;DHT22;3779;49.216;8.650;2022-12-07T08:23:19;18.70;37.00
7476;DHT22;3779;49.216;8.650;2022-12-07T08:26:07;18.70;36.80
7476;DHT22;3779;49.216;8.650;2022-12-07T08:28:53;18.70;36.90
7476;DHT22;3779;49.216;8.650;2022-12-07T08:31:39;18.70;36.70
7476;DHT22;3779;49.216;8.650;2022-12-07T08:34:25;18.70;36.70
7476;DHT22;3779;49.216;8.650;2022-12-07T08:37:11;18.70;36.70
7476;DHT22;3779;49.216;8.650;2022-12-07T08:39:57;18.70;36.70
7476;DHT22;3779;49.216;8.650;2022-12-07T08:42:43;18.70;36.60
7476;DHT22;3779;49.216;8.650;2022-12-07T08:45:30;18.70;36.10
7476;DHT22;3779;49.216;8.650;2022-12-07T08:48:21;18.70;36.00
7476;DHT22;3779;49.216;8.650;2022-12-07T08:51:10;18.60;36.20
7476;DHT22;3779;49.216;8.650;2022-12-07T08:53:58;18.50;36.10
7476;DHT22;3779;49.216;8.650;2022-12-07T08:56:46;18.50;36.30
7476;DHT22;3779;49.216;8.650;2022-12-07T08:59:35;18.50;36.40
7476;DHT22;3779;49.216;8.650;2022-12-07T09:02:22;18.40;36.50
7476;DHT22;3779;49.216;8.650;2022-12-07T09:05:08;18.40;36.70
7476;DHT22;3779;49.216;8.650;2022-12-07T09:07:57;18.40;36.50
7476;DHT22;3779;49.216;8.650;2022-12-07T09:10:45;18.30;36.50
7476;DHT22;3779;49.216;8.650;2022-12-07T09:13:31;18.40;36.70
7476;DHT22;3779;49.216;8.650;2022-12-07T09:16:17;18.30;36.60
7476;DHT22;3779;49.216;8.650;2022-12-07T09:19:03;18.30;36.80
7476;DHT22;3779;49.216;8.650;2022-12-07T09:21:49;18.30;36.40
7476;DHT22;3779;49.216;8.650;2022-12-07T09:24:35;18.30;36.30
7476;DHT22;3779;49.216;8.650;2022-12-07T09:27:21;18.30;36.30
7476;DHT22;3779;49.216;8.650;2022-12-07T09:30:07;18.30;36.60
7476;DHT22;3779;49.216;8.650;2022-12-07T09:32:56;18.30;36.80
7476;DHT22;3779;49.216;8.650;2022-12-07T09:35:50;18.30;37.60
7476;DHT22;3779;49.216;8.650;2022-12-07T09:38:36;18.30;37.00
7476;DHT22;3779;49.216;8.650;2022-12-07T09:41:23;18.30;37.00
7476;DHT22;3779;49.216;8.650;2022-12-07T09:44:17;18.30;37.20
7476;DHT22;3779;49.216;8.650;2022-12-07T09:47:04;18.30;37.20
7476;DHT22;3779;49.216;8.650;2022-12-07T09:49:51;18.30;37.00
7476;DHT22;3779;49.216;8.650;2022-12-07T09:52:37;18.30;37.30
7476;DHT22;3779;49.216;8.650;2022-12-07T09:55:26;18.30;37.20
7476;DHT22;3779;49.216;8.650;2022-12-07T09:58:24;18.30;37.30
7476;DHT22;3779;49.216;8.650;2022-12-07T10:01:14;18.30;38.20
7476;DHT22;3779;49.216;8.650;2022-12-07T10:04:16;18.30;37.20
7476;DHT22;3779;49.216;8.650;2022-12-07T10:07:03;18.30;37.20
7476;DHT22;3779;49.216;8.650;2022-12-07T10:09:49;18.30;37.40
7476;DHT22;3779;49.216;8.650;2022-12-07T10:12:55;18.30;37.50
7476;DHT22;3779;49.216;8.650;2022-12-07T10:15:57;18.30;37.70
7476;DHT22;3779;49.216;8.650;2022-12-07T10:18:43;18.30;37.50
7476;DHT22;3779;49.216;8.650;2022-12-07T10:21:29;18.30;37.20
7476;DHT22;3779;49.216;8.650;2022-12-07T10:24:15;18.30;37.50
7476;DHT22;3779;49.216;8.650;2022-12-07T10:27:02;18.30;37.40
7476;DHT22;3779;49.216;8.650;2022-12-07T10:29:50;18.30;37.40
7476;DHT22;3779;49.216;8.650;2022-12-07T10:32:36;18.30;37.40
7476;DHT22;3779;49.216;8.650;2022-12-07T10:35:28;18.30;37.00
7476;DHT22;3779;49.216;8.650;2022-12-07T10:38:16;18.30;37.20
7476;DHT22;3779;49.216;8.650;2022-12-07T10:41:05;18.30;37.20
7476;DHT22;3779;49.216;8.650;2022-12-07T10:43:54;18.30;37.30
7476;DHT22;3779;49.216;8.650;2022-12-07T10:46:54;18.30;37.90
7476;DHT22;3779;49.216;8.650;2022-12-07T10:56:17;18.30;37.50
7476;DHT22;3779;49.216;8.650;2022-12-07T11:22:50;18.30;37.20
7476;DHT22;3779;49.216;8.650;2022-12-07T11:26:04;18.30;37.10
7476;DHT22;3779;49.216;8.650;2022-12-07T11:29:06;18.30;37.60
7476;DHT22;3779;49.216;8.650;2022-12-07T11:32:22;18.30;37.20
7476;DHT22;3779;49.216;8.650;2022-12-07T11:41:25;18.30;37.00
7476;DHT22;3779;49.216;8.650;2022-12-07T11:44:24;18.30;37.00
7476;DHT22;3779;49.216;8.650;2022-12-07T11:50:39;18.30;37.00
7476;DHT22;3779;49.216;8.650;2022-12-07T11:53:34;18.30;37.40
7476;DHT22;3779;49.216;8.650;2022-12-07T11:56:23;18.30;37.80
7476;DHT22;3779;49.216;8.650;2022-12-07T11:59:17;18.30;37.30
7476;DHT22;3779;49.216;8.650;2022-12-07T12:02:14;18.30;37.20
7476;DHT22;3779;49.216;8.650;2022-12-07T12:05:15;18.30;37.20
7476;DHT22;3779;49.216;8.650;2022-12-07T12:11:02;18.40;37.10
7476;DHT22;3779;49.216;8.650;2022-12-07T12:20:29;18.30;36.80
7476;DHT22;3779;49.216;8.650;2022-12-07T12:26:20;18.30;36.90
7476;DHT22;3779;49.216;8.650;2022-12-07T12:32:17;18.30;36.90
7476;DHT22;3779;49.216;8.650;2022-12-07T12:38:29;18.30;37.00
7476;DHT22;3779;49.216;8.650;2022-12-07T12:50:38;18.30;36.90
7476;DHT22;3779;49.216;8.650;2022-12-07T12:53:25;18.30;36.80
7476;DHT22;3779;49.216;8.650;2022-12-07T13:02:33;18.30;37.20
7476;DHT22;3779;49.216;8.650;2022-12-07T13:05:23;18.30;37.30
7476;DHT22;3779;49.216;8.650;2022-12-07T13:08:24;18.40;37.30
7476;DHT22;3779;49.216;8.650;2022-12-07T13:11:20;18.40;37.00
7476;DHT22;3779;49.216;8.650;2022-12-07T13:14:39;18.40;36.90
7476;DHT22;3779;49.216;8.650;2022-12-07T13:20:41;18.40;37.20
7476;DHT22;3779;49.216;8.650;2022-12-07T13:26:38;18.30;37.40
7476;DHT22;3779;49.216;8.650;2022-12-07T13:29:26;18.30;36.70
7476;DHT22;3779;49.216;8.650;2022-12-07T13:32:27;18.40;37.00
7476;DHT22;3779;49.216;8.650;2022-12-07T13:35:34;18.30;37.20
7476;DHT22;3779;49.216;8.650;2022-12-07T13:38:30;18.30;37.00
7476;DHT22;3779;49.216;8.650;2022-12-07T13:41:19;18.30;36.90
7476;DHT22;3779;49.216;8.650;2022-12-07T13:44:16;18.40;37.30
7476;DHT22;3779;49.216;8.650;2022-12-07T13:47:18;18.30;37.10
7476;DHT22;3779;49.216;8.650;2022-12-07T13:50:25;18.40;37.30
7476;DHT22;3779;49.216;8.650;2022-12-07T13:53:13;18.30;37.00
7476;DHT22;3779;49.216;8.650;2022-12-07T13:56:00;18.40;36.80
7476;DHT22;3779;49.216;8.650;2022-12-07T13:58:46;18.40;37.00
7476;DHT22;3779;49.216;8.650;2022-12-07T14:01:32;18.40;36.70
7476;DHT22;3779;49.216;8.650;2022-12-07T14:04:33;18.40;36.50
7476;DHT22;3779;49.216;8.650;2022-12-07T14:11:08;18.40;36.90
7476;DHT22;3779;49.216;8.650;2022-12-07T14:16:35;18.40;37.10
7476;DHT22;3779;49.216;8.650;2022-12-07T14:19:41;18.40;37.30
7476;DHT22;3779;49.216;8.650;2022-12-07T14:22:29;18.40;37.40
7476;DHT22;3779;49.216;8.650;2022-12-07T14:25:48;18.40;37.30
7476;DHT22;3779;49.216;8.650;2022-12-07T14:28:36;18.30;37.20
7476;DHT22;3779;49.216;8.650;2022-12-07T14:31:24;18.40;37.20
7476;DHT22;3779;49.216;8.650;2022-12-07T14:34:13;18.40;37.10
7476;DHT22;3779;49.216;8.650;2022-12-07T14:36:59;18.40;37.10
7476;DHT22;3779;49.216;8.650;2022-12-07T14:39:45;18.40;37.30
7476;DHT22;3779;49.216;8.650;2022-12-07T14:42:31;18.40;37.30
7476;DHT22;3779;49.216;8.650;2022-12-07T14:45:20;18.30;37.30
7476;DHT22;3779;49.216;8.650;2022-12-07T14:48:15;18.30;37.40
7476;DHT22;3779;49.216;8.650;2022-12-07T14:51:02;18.30;37.40
7476;DHT22;3779;49.216;8.650;2022-12-07T14:53:51;18.30;37.30
7476;DHT22;3779;49.216;8.650;2022-12-07T14:56:37;18.30;37.80
7476;DHT22;3779;49.216;8.650;2022-12-07T14:59:23;18.40;37.90
7476;DHT22;3779;49.216;8.650;2022-12-07T15:02:12;18.40;37.60
7476;DHT22;3779;49.216;8.650;2022-12-07T15:04:58;18.50;38.20
7476;DHT22;3779;49.216;8.650;2022-12-07T15:07:45;18.50;37.80
7476;DHT22;3779;49.216;8.650;2022-12-07T15:10:33;18.50;37.90
7476;DHT22;3779;49.216;8.650;2022-12-07T15:13:19;18.60;38.00
7476;DHT22;3779;49.216;8.650;2022-12-07T15:16:23;18.60;38.00
7476;DHT22;3779;49.216;8.650;2022-12-07T15:19:21;18.60;38.10
7476;DHT22;3779;49.216;8.650;2022-12-07T15:22:11;18.60;38.40
7476;DHT22;3779;49.216;8.650;2022-12-07T15:24:57;18.60;38.10
7476;DHT22;3779;49.216;8.650;2022-12-07T15:27:43;18.60;38.10
7476;DHT22;3779;49.216;8.650;2022-12-07T15:30:29;18.60;37.90
7476;DHT22;3779;49.216;8.650;2022-12-07T15:33:15;18.60;38.00
7476;DHT22;3779;49.216;8.650;2022-12-07T15:36:01;18.50;38.10
7476;DHT22;3779;49.216;8.650;2022-12-07T15:38:47;18.50;38.50
7476;DHT22;3779;49.216;8.650;2022-12-07T15:41:35;18.50;38.00
7476;DHT22;3779;49.216;8.650;2022-12-07T15:44:21;18.50;38.10
7476;DHT22;3779;49.216;8.650;2022-12-07T15:47:25;18.50;38.10
7476;DHT22;3779;49.216;8.650;2022-12-07T15:50:14;18.50;38.10
7476;DHT22;3779;49.216;8.650;2022-12-07T15:53:00;18.50;38.10
7476;DHT22;3779;49.216;8.650;2022-12-07T15:55:46;18.50;37.90
7476;DHT22;3779;49.216;8.650;2022-12-07T15:58:32;18.50;37.90
7476;DHT22;3779;49.216;8.650;2022-12-07T16:01:19;18.50;37.70
7476;DHT22;3779;49.216;8.650;2022-12-07T16:04:05;18.50;37.70
7476;DHT22;3779;49.216;8.650;2022-12-07T16:06:51;18.50;37.60
7476;DHT22;3779;49.216;8.650;2022-12-07T16:09:37;18.50;37.50
7476;DHT22;3779;49.216;8.650;2022-12-07T16:12:23;18.50;38.30
7476;DHT22;3779;49.216;8.650;2022-12-07T16:15:10;18.50;37.70
7476;DHT22;3779;49.216;8.650;2022-12-07T16:17:56;18.50;37.80
7476;DHT22;3779;49.216;8.650;2022-12-07T16:20:42;18.50;37.60
7476;DHT22;3779;49.216;8.650;2022-12-07T16:23:28;18.50;37.70
7476;DHT22;3779;49.216;8.650;2022-12-07T16:26:17;18.50;37.80
7476;DHT22;3779;49.216;8.650;2022-12-07T16:29:04;18.50;37.70
7476;DHT22;3779;49.216;8.650;2022-12-07T16:31:51;18.40;37.40
7476;DHT22;3779;49.216;8.650;2022-12-07T16:34:37;18.40;37.40
7476;DHT22;3779;49.216;8.650;2022-12-07T16:37:23;18.40;37.60
7476;DHT22;3779;49.216;8.650;2022-12-07T16:40:09;18.40;37.60
7476;DHT22;3779;49.216;8.650;2022-12-07T16:42:56;18.40;37.40
7476;DHT22;3779;49.216;8.650;2022-12-07T16:45:41;18.40;37.60
7476;DHT22;3779;49.216;8.650;2022-12-07T16:48:28;18.40;37.50
7476;DHT22;3779;49.216;8.650;2022-12-07T16:51:14;18.40;37.50
7476;DHT22;3779;49.216;8.650;2022-12-07T16:54:00;18.40;37.70
7476;DHT22;3779;49.216;8.650;2022-12-07T16:56:46;18.40;37.50
7476;DHT22;3779;49.216;8.650;2022-12-07T16:59:32;18.40;37.60
7476;DHT22;3779;49.216;8.650;2022-12-07T17:02:18;18.40;37.60
7476;DHT22;3779;49.216;8.650;2022-12-07T17:05:04;18.40;37.60
7476;DHT22;3779;49.216;8.650;2022-12-07T17:07:50;18.40;37.80
7476;DHT22;3779;49.216;8.650;2022-12-07T17:10:39;18.40;37.50
7476;DHT22;3779;49.216;8.650;2022-12-07T17:13:25;18.40;37.70
7476;DHT22;3779;49.216;8.650;2022-12-07T17:16:30;18.40;37.90
7476;DHT22;3779;49.216;8.650;2022-12-07T17:19:16;18.50;37.50
7476;DHT22;3779;49.216;8.650;2022-12-07T17:22:02;18.40;37.40
7476;DHT22;3779;49.216;8.650;2022-12-07T17:24:48;18.50;38.40
7476;DHT22;3779;49.216;8.650;2022-12-07T17:27:34;18.50;39.10
7476;DHT22;3779;49.216;8.650;2022-12-07T17:30:20;18.60;37.40
7476;DHT22;3779;49.216;8.650;2022-12-07T17:33:06;18.50;37.40
7476;DHT22;3779;49.216;8.650;2022-12-07T17:35:52;18.50;37.90
7476;DHT22;3779;49.216;8.650;2022-12-07T17:38:38;18.60;38.70
7476;DHT22;3779;49.216;8.650;2022-12-07T17:41:26;18.60;37.30
7476;DHT22;3779;49.216;8.650;2022-12-07T17:44:31;18.50;37.20
7476;DHT22;3779;49.216;8.650;2022-12-07T17:47:17;18.50;37.40
7476;DHT22;3779;49.216;8.650;2022-12-07T17:50:05;18.50;37.70
7476;DHT22;3779;49.216;8.650;2022-12-07T17:52:51;18.50;38.20
7476;DHT22;3779;49.216;8.650;2022-12-07T17:55:55;18.50;37.50
7476;DHT22;3779;49.216;8.650;2022-12-07T17:58:41;18.50;37.60
7476;DHT22;3779;49.216;8.650;2022-12-07T18:01:27;18.50;37.80
7476;DHT22;3779;49.216;8.650;2022-12-07T18:04:13;18.50;38.80
7476;DHT22;3779;49.216;8.650;2022-12-07T18:06:59;18.60;37.90
7476;DHT22;3779;49.216;8.650;2022-12-07T18:09:45;18.50;37.40
7476;DHT22;3779;49.216;8.650;2022-12-07T18:12:31;18.50;37.30
7476;DHT22;3779;49.216;8.650;2022-12-07T18:15:17;18.50;37.80
7476;DHT22;3779;49.216;8.650;2022-12-07T18:18:03;18.50;37.50
7476;DHT22;3779;49.216;8.650;2022-12-07T18:20:49;18.50;37.80
7476;DHT22;3779;49.216;8.650;2022-12-07T18:23:35;18.50;37.60
7476;DHT22;3779;49.216;8.650;2022-12-07T18:26:23;18.50;37.70
7476;DHT22;3779;49.216;8.650;2022-12-07T18:29:13;18.50;37.50
7476;DHT22;3779;49.216;8.650;2022-12-07T18:31:59;18.50;37.50
7476;DHT22;3779;49.216;8.650;2022-12-07T18:34:46;18.40;37.50
7476;DHT22;3779;49.216;8.650;2022-12-07T18:37:32;18.40;38.00
7476;DHT22;3779;49.216;8.650;2022-12-07T18:40:18;18.40;37.50
7476;DHT22;3779;49.216;8.650;2022-12-07T18:43:05;18.40;37.60
7476;DHT22;3779;49.216;8.650;2022-12-07T18:45:51;18.40;37.80
7476;DHT22;3779;49.216;8.650;2022-12-07T18:48:37;18.40;37.70
7476;DHT22;3779;49.216;8.650;2022-12-07T18:51:23;18.40;37.60
7476;DHT22;3779;49.216;8.650;2022-12-07T18:54:09;18.40;37.60
7476;DHT22;3779;49.216;8.650;2022-12-07T18:56:55;18.40;37.60
7476;DHT22;3779;49.216;8.650;2022-12-07T18:59:41;18.40;37.50
7476;DHT22;3779;49.216;8.650;2022-12-07T19:02:34;18.40;37.50
7476;DHT22;3779;49.216;8.650;2022-12-07T19:05:21;18.40;37.50
7476;DHT22;3779;49.216;8.650;2022-12-07T19:08:08;18.40;37.60
7476;DHT22;3779;49.216;8.650;2022-12-07T19:10:54;18.40;37.40
7476;DHT22;3779;49.216;8.650;2022-12-07T19:13:59;18.40;37.30
7476;DHT22;3779;49.216;8.650;2022-12-07T19:16:47;18.40;37.30
7476;DHT22;3779;49.216;8.650;2022-12-07T19:19:39;18.30;37.40
7476;DHT22;3779;49.216;8.650;2022-12-07T19:22:25;18.30;37.40
7476;DHT22;3779;49.216;8.650;2022-12-07T19:25:11;18.30;37.30
7476;DHT22;3779;49.216;8.650;2022-12-07T19:27:57;18.40;37.60
7476;DHT22;3779;49.216;8.650;2022-12-07T19:30:43;18.40;37.30
7476;DHT22;3779;49.216;8.650;2022-12-07T19:33:29;18.40;37.50
7476;DHT22;3779;49.216;8.650;2022-12-07T19:36:14;18.40;37.40
7476;DHT22;3779;49.216;8.650;2022-12-07T19:39:00;18.40;38.10
7476;DHT22;3779;49.216;8.650;2022-12-07T19:41:47;18.40;37.60
7476;DHT22;3779;49.216;8.650;2022-12-07T19:44:33;18.40;37.90
7476;DHT22;3779;49.216;8.650;2022-12-07T19:47:19;18.50;37.60
7476;DHT22;3779;49.216;8.650;2022-12-07T19:50:05;18.50;37.50
7476;DHT22;3779;49.216;8.650;2022-12-07T19:52:51;18.50;37.30
7476;DHT22;3779;49.216;8.650;2022-12-07T19:55:40;18.40;37.40
7476;DHT22;3779;49.216;8.650;2022-12-07T19:58:27;18.40;37.60
7476;DHT22;3779;49.216;8.650;2022-12-07T20:01:14;18.40;37.80
7476;DHT22;3779;49.216;8.650;2022-12-07T20:04:00;18.40;37.30
7476;DHT22;3779;49.216;8.650;2022-12-07T20:06:51;18.40;37.50
7476;DHT22;3779;49.216;8.650;2022-12-07T20:09:37;18.40;37.60
7476;DHT22;3779;49.216;8.650;2022-12-07T20:12:23;18.40;37.70
7476;DHT22;3779;49.216;8.650;2022-12-07T20:15:28;18.40;37.80
7476;DHT22;3779;49.216;8.650;2022-12-07T20:18:14;18.40;37.70
7476;DHT22;3779;49.216;8.650;2022-12-07T20:21:00;18.50;37.70
7476;DHT22;3779;49.216;8.650;2022-12-07T20:23:46;18.50;37.50
7476;DHT22;3779;49.216;8.650;2022-12-07T20:26:33;18.50;37.60
7476;DHT22;3779;49.216;8.650;2022-12-07T20:29:22;18.40;37.30
7476;DHT22;3779;49.216;8.650;2022-12-07T20:32:11;18.40;37.80
7476;DHT22;3779;49.216;8.650;2022-12-07T20:34:57;18.50;37.60